AirNav   Everest Fuels
 
 832 users online  

WA80 Mc Clellan Field Airport
Amboy, Washington, USA

GOING TO AMBOY?


FAA INFORMATION EFFECTIVE 25 FEBRUARY 2021

Location

FAA Identifier: WA80
Lat/Long: 45-53-39.4070N 122-32-53.3570W
45-53.656783N 122-32.889283W
45.8942797,-122.5481547
(estimated)
Elevation: 840 ft. / 256 m (estimated)
Variation: 20E (1985)
From city: 4 miles WSW of AMBOY, WA
Time zone: UTC -8 (UTC -7 during Daylight Saving Time)
Zip code: 98629

Airport Operations

Airport use: Private use. Permission required prior to landing
Activation date: 08/1976
Control tower: no
ARTCC: SEATTLE CENTER
FSS: SEATTLE FLIGHT SERVICE STATION
Attendance: CONTINUOUS
Wind indicator: yes
Segmented circle: no

Airport Communications

WX ASOS at SPB (15 nm SW): 135.875 (503-543-6401)
WX ASOS at VUO (17 nm S): 135.125 (360-696-1280)
WX ASOS at PDX (18 nm S): PHONE (503) 493-7687
WX AWOS-3PT at KLS (20 nm NW): 135.075 (360-577-1964)

Nearby radio navigation aids

VOR radial/distance  VOR name  Freq  Var
BTGr351/9.0BATTLE GROUND VORTAC116.6021E
UBGr008/37.1NEWBERG VOR/DME117.4021E

 
NDB name  Hdg/Dist  Freq  Var  ID
BANKS037/26.235616EPND .--. -. -..

Airport Services

Runway Information

Runway 17/35

Dimensions: 1300 x 40 ft. / 396 x 12 m
Surface: turf
RUNWAY 17  RUNWAY 35
Traffic pattern: leftleft
Obstructions: 5 ft. fence, 25 ft. from runway5 ft. fence

Airport Ownership and Management from official FAA records

Ownership: Privately-owned
Owner: JAMES L. MC CLELLAN
12117 NE 379TH STREET
LACENTER, WA 98629
Phone (360) 263-3543
Manager: JAMES L. MC CLELLAN
12117 NE 379TH STREET
LACENTER, WA 98629
Phone (360) 263-3543

Airport Operational Statistics

Aircraft based on the field: 1
Single engine airplanes: 1
    

Additional Remarks

FOR CD CTC PORTLAND APCH AT 503-493-7545.

Instrument Procedures

There are no published instrument procedures at WA80.

Some nearby airports with instrument procedures:

KSPB - Scappoose Industrial Airpark (15 nm SW)
KVUO - Pearson Field Airport (17 nm S)
KPDX - Portland International Airport (18 nm S)
KKLS - Southwest Washington Regional Airport (20 nm NW)
KTTD - Portland-Troutdale Airport (22 nm S)
 
Loc | Ops | Rwys | IFR | FBO | Links
Com | Nav | Svcs | Stats | Notes
Area around WA80 (Mc Clellan Field Airport)
 
Road maps at: MapQuest Bing Google
 
Aerial photo
No photo
 
Sectional chart

 
Airport distance calculator
Flying to Mc Clellan Field Airport? Find the distance to fly.

From to WA80

Sunrise and sunset
Times for 01-Mar-2021
 Local
(UTC-8)
 Zulu
(UTC)
Morning civil twilight06:2014:20
Sunrise06:5014:50
Sunset17:5501:55
Evening civil twilight18:2502:25

Current date and time
Zulu (UTC)  01-Mar-2021 13:26:53
Local (UTC-8)  01-Mar-2021 05:26:53
 
METAR
KSPB 
15nm SW 
011253Z AUTO 00000KT 9SM CLR 03/02 A3007 RMK AO2 SLP181 T00280017
KVUO 
17nm S 
011253Z AUTO 00000KT 9SM CLR 02/M01 A3007 RMK AO2 SLP181 T00221006
KPDX 
19nm S 
011253Z 00000KT 10SM SCT220 04/02 A3007 RMK AO2 SLP183 T00440022
KKLS 
20nm NW 
011256Z AUTO 00000KT 10SM CLR 02/02 A3008 RMK AO2 SLP191 T00220017 FZRANO
KTTD 
21nm S 
011253Z AUTO 09009KT 10SM CLR 06/02 A3007 RMK AO2 SLP181 T00560022 $
KHIO 
27nm SW 
011253Z AUTO 28003KT 10SM CLR 03/02 A3005 RMK AO2 SLP178 T00280022
TAF
KPDX 
19nm S 
010230Z 0103/0124 VRB03KT P6SM BKN220 FM012100 21004KT P6SM SCT250
KTTD 
21nm S 
281735Z 2818/0118 VRB03KT P6SM SCT050 FM010500 09006KT P6SM BKN250
NOTAMs
Click for the latest NOTAMs
NOTAMs are issued by the DoD/FAA and will open in a separate window not controlled by AirNav.

 

 
 

Would you like to see your business listed on this page?

 If your business provides an interesting product or service to pilots, flight crews, aircraft, or users of the Mc Clellan Field Airport, you should consider listing it here.  To start the listing process, click on the button below
 
Add a business
 

Other Pages about Mc Clellan Field Airport

Update a link
 
Copyright © AirNav, LLC. All rights reserved. Privacy Policy  Contact